Terminal Aerodrome Forecast
Issued by NWS

Home | Current Version | Previous Version | Text Only | Print | Product List | Glossary On
Versions: 1 2 3 4 5 6 7 8 9 10 11 12
000
FTUS45 KGJT 191131
TAFVEL
TAF
KVEL 191131Z 1912/2012 32003KT P6SM FEW250
     FM191900 19004KT P6SM SCT130 BKN150
     FM200100 25004KT P6SM SCT100 BKN120
     FM200500 30005KT P6SM VCSH OVC080
     FM200800 01004KT P6SM -SHSN OVC060=

USA.gov is the U.S. government's official web portal to all federal, state and local government web resources and services.